createdAt,value
2019-02-25T00:00:20.401Z,99.90
2019-02-25T00:02:49.685Z,99.90
2019-02-25T00:05:18.998Z,99.90
2019-02-25T00:07:48.336Z,99.90
2019-02-25T00:10:17.611Z,99.90
2019-02-25T00:12:46.964Z,99.90
2019-02-25T00:15:16.268Z,99.90
2019-02-25T00:17:45.548Z,99.90
2019-02-25T00:20:14.891Z,99.90
2019-02-25T00:22:44.178Z,99.90
2019-02-25T00:25:13.559Z,99.90
2019-02-25T00:27:42.874Z,99.90
2019-02-25T00:30:12.470Z,99.90
2019-02-25T00:32:41.736Z,99.90
2019-02-25T00:35:11.565Z,99.90
2019-02-25T00:37:40.892Z,99.90
2019-02-25T00:40:10.405Z,99.90
2019-02-25T00:42:39.702Z,99.90
2019-02-25T00:45:09.136Z,99.90
2019-02-25T00:47:38.436Z,99.90
2019-02-25T00:50:09.935Z,99.90
2019-02-25T00:52:39.243Z,99.90
2019-02-25T00:55:08.776Z,99.90
2019-02-25T00:57:38.457Z,99.90
2019-02-25T01:00:11.222Z,99.90
2019-02-25T01:02:40.592Z,99.90
2019-02-25T01:05:09.937Z,99.90
2019-02-25T01:07:39.332Z,99.90
2019-02-25T01:10:09.661Z,99.90
2019-02-25T01:12:39.324Z,99.90
2019-02-25T01:15:09.348Z,99.90
2019-02-25T01:17:38.969Z,99.90
2019-02-25T01:20:08.408Z,99.90
2019-02-25T01:22:37.686Z,99.90
2019-02-25T01:25:09.081Z,99.90
2019-02-25T01:27:38.355Z,99.90
2019-02-25T01:30:10.439Z,99.90
2019-02-25T01:32:39.729Z,99.90
2019-02-25T01:35:10.895Z,99.90
2019-02-25T01:37:40.177Z,99.90
2019-02-25T01:40:10.512Z,99.90
2019-02-25T01:42:39.798Z,99.90
2019-02-25T01:45:10.860Z,99.90
2019-02-25T01:47:40.499Z,99.90
2019-02-25T01:50:10.320Z,99.90
2019-02-25T01:52:39.624Z,99.90
2019-02-25T01:55:09.538Z,99.90
2019-02-25T01:57:38.807Z,99.90
2019-02-25T02:00:11.469Z,99.90
2019-02-25T02:02:41.171Z,99.90
2019-02-25T02:05:10.573Z,99.90
2019-02-25T02:07:39.922Z,99.90
2019-02-25T02:10:11.065Z,99.90
2019-02-25T02:12:40.344Z,99.90
2019-02-25T02:15:12.916Z,99.90
2019-02-25T02:17:42.867Z,99.90
2019-02-25T02:20:13.605Z,99.90
2019-02-25T02:22:43.289Z,99.90
2019-02-25T02:25:12.791Z,99.90
2019-02-25T02:27:42.096Z,99.90
2019-02-25T02:30:14.630Z,99.90
2019-02-25T02:32:44.415Z,99.90
2019-02-25T02:35:13.801Z,99.90
2019-02-25T02:37:43.099Z,99.90
2019-02-25T02:40:12.905Z,99.90
2019-02-25T02:42:44.238Z,99.90
2019-02-25T02:46:19.547Z,99.90
2019-02-25T02:48:52.774Z,99.90
2019-02-25T02:51:22.050Z,99.90
2019-02-25T02:53:51.364Z,99.90
2019-02-25T02:56:20.677Z,99.90
2019-02-25T02:58:50.037Z,99.90
2019-02-25T03:01:19.322Z,99.90
2019-02-25T03:03:48.620Z,99.90
2019-02-25T03:06:17.934Z,99.90
2019-02-25T03:08:47.769Z,99.90
2019-02-25T03:11:17.073Z,99.90
2019-02-25T03:13:46.354Z,99.90
2019-02-25T03:16:15.765Z,99.90
2019-02-25T03:18:45.077Z,99.90
2019-02-25T03:21:14.349Z,99.90
2019-02-25T03:23:43.682Z,99.90
2019-02-25T03:26:12.983Z,99.90
2019-02-25T03:28:42.268Z,99.90
2019-02-25T03:31:11.591Z,99.90
2019-02-25T03:33:40.913Z,99.90
2019-02-25T03:36:10.705Z,99.90
2019-02-25T03:38:40.005Z,99.90
2019-02-25T03:41:09.421Z,99.90
2019-02-25T03:43:38.695Z,99.90
2019-02-25T03:46:08.284Z,99.90
2019-02-25T03:48:37.737Z,99.90
2019-02-25T03:51:07.993Z,99.90
2019-02-25T03:53:37.408Z,99.90
2019-02-25T03:56:06.738Z,99.90
2019-02-25T03:58:36.060Z,99.90
2019-02-25T04:01:05.356Z,99.90
2019-02-25T04:03:34.601Z,99.90
2019-02-25T04:06:03.943Z,99.90
2019-02-25T04:08:33.219Z,99.90
2019-02-25T04:11:02.537Z,99.90
2019-02-25T04:13:31.866Z,99.90
2019-02-25T04:16:01.689Z,99.90
2019-02-25T04:18:31.039Z,99.90
2019-02-25T04:21:00.712Z,99.90
2019-02-25T04:23:30.032Z,99.90
2019-02-25T04:25:59.324Z,99.90
2019-02-25T04:28:28.664Z,99.90
2019-02-25T04:30:57.957Z,99.90
2019-02-25T04:33:27.260Z,99.90
2019-02-25T04:35:56.585Z,99.90
2019-02-25T04:38:25.864Z,99.90
2019-02-25T04:40:55.190Z,99.90
2019-02-25T04:43:24.925Z,99.90
2019-02-25T04:45:54.205Z,99.90
2019-02-25T04:48:23.525Z,99.90
2019-02-25T04:50:52.828Z,99.90
2019-02-25T04:53:22.584Z,99.90
2019-02-25T04:55:51.949Z,99.90
2019-02-25T04:58:21.224Z,99.90
2019-02-25T05:00:50.528Z,99.90
2019-02-25T05:03:19.837Z,99.90
2019-02-25T05:05:49.117Z,99.90
2019-02-25T05:08:18.392Z,99.90
2019-02-25T05:10:47.727Z,99.90
2019-02-25T05:13:17.028Z,99.90
2019-02-25T05:15:46.303Z,99.90
2019-02-25T05:18:15.615Z,99.90
2019-02-25T05:20:44.985Z,99.90
2019-02-25T05:23:14.663Z,99.90
2019-02-25T05:25:43.981Z,99.90
2019-02-25T05:28:13.265Z,99.90
2019-02-25T05:30:42.649Z,99.90
2019-02-25T05:33:12.021Z,99.90
2019-02-25T05:35:41.438Z,99.90
2019-02-25T05:38:10.734Z,99.90
2019-02-25T05:40:41.133Z,99.90
2019-02-25T05:43:10.426Z,99.90
2019-02-25T05:45:39.721Z,99.90
2019-02-25T05:48:09.457Z,99.90
2019-02-25T05:50:38.757Z,99.90
2019-02-25T05:53:08.065Z,99.90
2019-02-25T05:55:37.392Z,99.90
2019-02-25T05:58:06.676Z,99.90
2019-02-25T06:00:36.524Z,99.90
2019-02-25T06:03:06.168Z,99.90
2019-02-25T06:05:35.485Z,99.90
2019-02-25T06:08:04.848Z,99.90
2019-02-25T06:10:34.424Z,99.90
2019-02-25T06:13:03.705Z,99.90
2019-02-25T06:15:33.032Z,99.90
2019-02-25T06:18:02.327Z,99.90
2019-02-25T06:20:31.694Z,99.90
2019-02-25T06:23:00.971Z,99.90
2019-02-25T06:25:30.581Z,99.90
2019-02-25T06:27:59.941Z,99.90
2019-02-25T06:30:29.252Z,99.90
2019-02-25T06:32:58.561Z,99.90
2019-02-25T06:35:27.865Z,99.90
2019-02-25T06:37:57.162Z,99.90
2019-02-25T06:40:26.441Z,99.90
2019-02-25T06:42:55.743Z,99.90
2019-02-25T06:45:25.517Z,99.90
2019-02-25T06:47:55.211Z,99.90
2019-02-25T06:50:24.489Z,99.90
2019-02-25T06:52:53.897Z,99.90
2019-02-25T06:55:23.635Z,99.90
2019-02-25T06:57:52.942Z,99.90
2019-02-25T07:00:22.625Z,99.90
2019-02-25T07:02:52.010Z,99.90
2019-02-25T07:05:26.477Z,99.90
2019-02-25T07:07:58.504Z,99.90
2019-02-25T07:11:01.849Z,99.90
2019-02-25T07:13:48.974Z,99.90
2019-02-25T07:16:24.506Z,99.90
2019-02-25T07:19:11.432Z,99.90
2019-02-25T07:21:58.602Z,99.90
2019-02-25T07:24:52.442Z,99.90
2019-02-25T07:27:49.086Z,99.90
2019-02-25T07:30:23.605Z,99.90
2019-02-25T07:33:11.163Z,99.90
2019-02-25T07:35:49.014Z,99.90
2019-02-25T07:38:39.425Z,99.90
2019-02-25T07:41:33.488Z,99.90
2019-02-25T07:44:27.708Z,99.90
2019-02-25T07:47:24.990Z,99.90
2019-02-25T07:50:16.032Z,99.90
2019-02-25T07:53:04.271Z,99.90
2019-02-25T07:56:07.671Z,99.90
2019-02-25T07:59:01.766Z,99.90
2019-02-25T08:01:43.452Z,99.90
2019-02-25T08:04:27.543Z,99.90
2019-02-25T08:07:04.375Z,99.90
2019-02-25T08:09:55.637Z,99.90
2019-02-25T08:12:36.158Z,99.90
2019-02-25T08:15:33.964Z,99.90
2019-02-25T08:18:14.797Z,99.90
2019-02-25T08:20:53.136Z,99.90
2019-02-25T08:23:39.890Z,99.90
2019-02-25T08:26:22.453Z,99.90
2019-02-25T08:29:01.468Z,99.90
2019-02-25T08:31:49.734Z,99.90
2019-02-25T08:34:47.320Z,99.90
2019-02-25T08:38:01.432Z,99.90
2019-02-25T08:40:49.100Z,99.90
2019-02-25T08:43:40.428Z,99.90
2019-02-25T08:46:28.664Z,99.90
2019-02-25T08:49:22.826Z,99.90
2019-02-25T08:51:52.168Z,99.90
2019-02-25T08:54:21.757Z,99.90
2019-02-25T08:56:51.065Z,99.90
2019-02-25T08:59:20.352Z,99.90
2019-02-25T09:01:49.655Z,99.90
2019-02-25T09:04:18.949Z,99.90
2019-02-25T09:06:48.329Z,99.90
2019-02-25T09:09:17.615Z,99.90
2019-02-25T09:11:46.912Z,99.90
2019-02-25T09:14:16.192Z,99.90
2019-02-25T09:16:45.496Z,99.90
2019-02-25T09:19:15.170Z,99.90
2019-02-25T09:21:45.413Z,99.90
2019-02-25T09:24:14.817Z,99.90
2019-02-25T09:26:44.121Z,99.90
2019-02-25T09:29:13.838Z,99.90
2019-02-25T09:31:43.208Z,99.20
2019-02-25T09:34:12.883Z,98.40
2019-02-25T09:36:42.220Z,97.90
2019-02-25T09:39:12.968Z,96.70
2019-02-25T09:41:42.260Z,97.00
2019-02-25T09:44:11.940Z,96.30
2019-02-25T09:46:41.236Z,96.90
2019-02-25T09:49:10.546Z,96.70
2019-02-25T09:51:39.889Z,96.10
2019-02-25T09:54:09.178Z,96.10
2019-02-25T09:56:38.505Z,96.10
2019-02-25T09:59:07.809Z,91.40
2019-02-25T10:01:37.132Z,90.90
2019-02-25T10:04:06.451Z,91.30
2019-02-25T10:06:36.035Z,90.70
2019-02-25T10:09:07.573Z,89.60
2019-02-25T10:11:36.886Z,89.40
2019-02-25T10:14:06.324Z,85.60
2019-02-25T10:16:35.621Z,85.40
2019-02-25T10:19:04.917Z,87.10
2019-02-25T10:21:34.307Z,87.00
2019-02-25T10:24:03.652Z,87.50
2019-02-25T10:26:33.022Z,89.00
2019-02-25T10:29:02.361Z,88.30
2019-02-25T10:31:31.696Z,89.70
2019-02-25T10:34:01.306Z,89.40
2019-02-25T10:36:30.632Z,84.70
2019-02-25T10:38:59.933Z,85.00
2019-02-25T10:41:29.235Z,86.00
2019-02-25T10:44:00.247Z,86.90
2019-02-25T10:46:29.597Z,84.50
2019-02-25T10:49:04.954Z,87.20
2019-02-25T10:51:30.408Z,85.20
2019-02-25T10:53:59.689Z,86.60
2019-02-25T10:56:37.083Z,84.30
2019-02-25T10:59:08.114Z,82.20
2019-02-25T11:01:39.162Z,84.60
2019-02-25T11:04:08.689Z,84.90
2019-02-25T11:06:38.003Z,89.00
2019-02-25T11:09:27.569Z,88.00
2019-02-25T11:11:59.579Z,88.50
2019-02-25T11:14:28.405Z,87.80
2019-02-25T11:16:57.692Z,88.80
2019-02-25T11:19:28.527Z,89.50
2019-02-25T11:21:58.068Z,89.00
2019-02-25T11:24:27.450Z,86.30
2019-02-25T11:26:57.331Z,87.20
2019-02-25T11:29:27.722Z,88.60
2019-02-25T11:31:57.090Z,86.40
2019-02-25T11:34:26.370Z,89.20
2019-02-25T11:36:57.175Z,87.90
2019-02-25T11:39:27.476Z,87.00
2019-02-25T11:41:57.821Z,85.30
2019-02-25T11:44:31.037Z,87.40
2019-02-25T11:46:58.275Z,82.00
2019-02-25T11:49:27.624Z,82.20
2019-02-25T11:51:56.943Z,81.00
2019-02-25T11:54:26.395Z,81.20
2019-02-25T11:56:55.761Z,81.80
2019-02-25T11:59:25.084Z,81.10
2019-02-25T12:01:54.444Z,78.90
2019-02-25T12:04:23.823Z,81.70
2019-02-25T12:06:53.134Z,79.50
2019-02-25T12:09:22.434Z,80.50
2019-02-25T12:11:51.763Z,79.00
2019-02-25T12:14:21.092Z,80.10
2019-02-25T12:16:52.736Z,79.80
2019-02-25T12:19:22.094Z,77.70
2019-02-25T12:21:51.375Z,81.70
2019-02-25T12:24:20.718Z,79.50
2019-02-25T12:26:50.021Z,80.20
2019-02-25T12:29:19.252Z,79.00
2019-02-25T12:31:48.645Z,76.40
2019-02-25T12:34:17.976Z,75.10
2019-02-25T12:36:47.360Z,79.80
2019-02-25T12:39:16.691Z,76.00
2019-02-25T12:41:46.344Z,76.70
2019-02-25T12:44:15.936Z,77.70
2019-02-25T12:46:45.261Z,77.10
2019-02-25T12:49:14.555Z,74.20
2019-02-25T12:51:44.212Z,75.30
2019-02-25T12:54:13.897Z,76.20
2019-02-25T12:56:43.204Z,75.40
2019-02-25T12:59:12.492Z,75.20
2019-02-25T13:01:41.824Z,75.00
2019-02-25T13:04:11.221Z,76.60
2019-02-25T13:06:40.522Z,78.20
2019-02-25T13:09:15.008Z,77.00
2019-02-25T13:11:44.432Z,76.40
2019-02-25T13:14:13.776Z,78.40
2019-02-25T13:16:43.144Z,76.00
2019-02-25T13:19:12.598Z,77.50
2019-02-25T13:21:41.929Z,74.90
2019-02-25T13:24:12.044Z,78.60
2019-02-25T13:26:41.392Z,77.00
2019-02-25T13:29:10.697Z,77.80
2019-02-25T13:31:40.167Z,77.70
2019-02-25T13:34:09.529Z,78.20
2019-02-25T13:36:38.947Z,77.40
2019-02-25T13:39:08.797Z,80.30
2019-02-25T13:41:38.160Z,78.80
2019-02-25T13:44:07.537Z,75.90
2019-02-25T13:46:36.968Z,77.70
2019-02-25T13:49:06.676Z,76.70
2019-02-25T13:51:36.060Z,77.10
2019-02-25T13:54:05.429Z,77.80
2019-02-25T13:56:34.805Z,74.70
2019-02-25T13:59:04.288Z,75.90
2019-02-25T14:01:34.184Z,75.00
2019-02-25T14:04:03.692Z,76.90
2019-02-25T14:06:33.137Z,77.00
2019-02-25T14:09:02.533Z,76.30
2019-02-25T14:11:32.211Z,78.00
2019-02-25T14:14:01.599Z,76.30
2019-02-25T14:16:31.147Z,77.30
2019-02-25T14:19:00.461Z,78.10
2019-02-25T14:21:31.656Z,78.40
2019-02-25T14:24:00.965Z,77.90
2019-02-25T14:26:30.516Z,75.90
2019-02-25T14:28:59.905Z,77.90
2019-02-25T14:31:29.925Z,77.10
2019-02-25T14:33:59.861Z,76.90
2019-02-25T14:36:29.261Z,77.40
2019-02-25T14:38:59.408Z,74.70
2019-02-25T14:41:29.661Z,74.80
2019-02-25T14:43:59.144Z,76.40
2019-02-25T14:46:28.510Z,78.80
2019-02-25T14:48:57.888Z,76.20
2019-02-25T14:51:27.249Z,77.20
2019-02-25T14:53:56.633Z,74.80
2019-02-25T14:56:25.995Z,73.80
2019-02-25T14:58:55.897Z,73.00
2019-02-25T15:01:27.036Z,73.90
2019-02-25T15:03:58.056Z,74.70
2019-02-25T15:06:28.213Z,74.60
2019-02-25T15:08:59.585Z,76.50
2019-02-25T15:11:29.530Z,76.30
2019-02-25T15:13:59.472Z,75.80
2019-02-25T15:16:29.082Z,76.20
2019-02-25T15:18:58.598Z,75.60
2019-02-25T15:21:29.508Z,75.90
2019-02-25T15:24:00.518Z,76.40
2019-02-25T15:26:30.359Z,76.40
2019-02-25T15:29:00.714Z,75.20
2019-02-25T15:31:31.050Z,74.60
2019-02-25T15:34:00.418Z,74.30
2019-02-25T15:36:29.795Z,73.40
2019-02-25T15:38:59.181Z,74.00
2019-02-25T15:41:28.601Z,74.70
2019-02-25T15:43:59.878Z,74.50
2019-02-25T15:46:29.028Z,74.30
2019-02-25T15:48:58.399Z,74.70
2019-02-25T15:51:28.434Z,74.00
2019-02-25T15:53:59.830Z,74.10
2019-02-25T15:56:29.305Z,74.60
2019-02-25T15:58:58.669Z,75.00
2019-02-25T16:01:28.383Z,72.70
2019-02-25T16:04:02.276Z,74.60
2019-02-25T16:06:30.996Z,75.20
2019-02-25T16:09:00.873Z,75.20
2019-02-25T16:11:31.574Z,74.50
2019-02-25T16:14:02.462Z,74.80
2019-02-25T16:16:32.029Z,75.10
2019-02-25T16:19:01.507Z,75.80
2019-02-25T16:21:31.502Z,75.40
2019-02-25T16:24:02.042Z,76.00
2019-02-25T16:26:34.080Z,76.50
2019-02-25T16:29:05.937Z,76.90
2019-02-25T16:31:35.905Z,76.50
2019-02-25T16:34:05.580Z,77.20
2019-02-25T16:36:34.976Z,77.30
2019-02-25T16:39:07.245Z,78.20
2019-02-25T16:41:36.656Z,77.10
2019-02-25T16:44:08.960Z,77.50
2019-02-25T16:46:40.776Z,77.20
2019-02-25T16:49:09.293Z,77.80
2019-02-25T16:51:38.964Z,78.20
2019-02-25T16:54:11.065Z,79.40
2019-02-25T16:56:39.541Z,80.00
2019-02-25T16:59:11.165Z,79.90
2019-02-25T17:01:41.557Z,80.20
2019-02-25T17:04:12.232Z,80.70
2019-02-25T17:06:42.605Z,80.50
2019-02-25T17:09:18.171Z,80.80
2019-02-25T17:11:47.968Z,80.80
2019-02-25T17:14:19.031Z,79.70
2019-02-25T17:16:48.399Z,79.80
2019-02-25T17:19:19.656Z,79.80
2019-02-25T17:21:50.028Z,80.20
2019-02-25T17:24:23.795Z,79.60
2019-02-25T17:26:50.450Z,79.80
2019-02-25T17:29:19.864Z,81.10
2019-02-25T17:31:49.152Z,81.50
2019-02-25T17:34:19.194Z,82.20
2019-02-25T17:36:50.095Z,83.80
2019-02-25T17:39:20.978Z,83.90
2019-02-25T17:41:50.368Z,84.30
2019-02-25T17:44:20.619Z,85.70
2019-02-25T17:46:51.277Z,86.50
2019-02-25T17:49:20.804Z,87.50
2019-02-25T17:51:51.288Z,88.00
2019-02-25T17:54:21.261Z,88.80
2019-02-25T17:56:51.870Z,89.10
2019-02-25T17:59:22.977Z,90.00
2019-02-25T18:01:52.713Z,90.10
2019-02-25T18:04:24.368Z,90.50
2019-02-25T18:06:53.489Z,91.10
2019-02-25T18:09:24.669Z,91.50
2019-02-25T18:11:53.886Z,92.00
2019-02-25T18:14:23.297Z,92.10
2019-02-25T18:16:52.721Z,92.90
2019-02-25T18:19:24.438Z,93.00
2019-02-25T18:21:54.041Z,93.10
2019-02-25T18:24:26.999Z,93.20
2019-02-25T18:26:54.903Z,93.90
2019-02-25T18:29:24.837Z,94.40
2019-02-25T18:31:54.716Z,93.90
2019-02-25T18:34:24.096Z,93.80
2019-02-25T18:36:55.403Z,94.20
2019-02-25T18:39:25.282Z,94.60
2019-02-25T18:41:56.982Z,95.20
2019-02-25T18:44:26.900Z,95.50
2019-02-25T18:46:56.300Z,96.20
2019-02-25T18:49:26.664Z,96.70
2019-02-25T18:51:57.109Z,97.50
2019-02-25T18:54:26.476Z,97.80
2019-02-25T18:56:57.012Z,98.00
2019-02-25T18:59:26.912Z,98.20
2019-02-25T19:01:56.279Z,98.20
2019-02-25T19:04:26.220Z,98.20
2019-02-25T19:06:56.498Z,98.20
2019-02-25T19:09:27.693Z,98.50
2019-02-25T19:11:58.548Z,98.90
2019-02-25T19:14:29.369Z,99.10
2019-02-25T19:17:00.324Z,98.90
2019-02-25T19:19:31.425Z,99.50
2019-02-25T19:22:03.173Z,99.90
2019-02-25T19:24:36.245Z,99.90
2019-02-25T19:27:08.691Z,99.90
2019-02-25T19:29:39.327Z,99.90
2019-02-25T19:32:10.265Z,99.90
2019-02-25T19:34:44.162Z,99.90
2019-02-25T19:37:14.494Z,99.90
2019-02-25T19:39:46.228Z,99.90
2019-02-25T19:42:17.745Z,99.90
2019-02-25T19:44:46.296Z,99.90
2019-02-25T19:47:16.868Z,99.90
2019-02-25T19:49:46.854Z,99.90
2019-02-25T19:52:16.928Z,99.90
2019-02-25T19:54:48.160Z,99.90
2019-02-25T19:57:18.712Z,99.90
2019-02-25T19:59:50.708Z,99.90
2019-02-25T20:02:19.713Z,99.90
2019-02-25T20:04:51.441Z,99.90
2019-02-25T20:07:25.587Z,99.90
2019-02-25T20:09:51.500Z,99.90
2019-02-25T20:12:21.012Z,99.90
2019-02-25T20:14:50.866Z,99.90
2019-02-25T20:17:21.608Z,99.90
2019-02-25T20:19:51.691Z,99.90
2019-02-25T20:22:21.009Z,99.90
2019-02-25T20:24:51.143Z,99.90
2019-02-25T20:27:21.503Z,99.90
2019-02-25T20:29:51.124Z,99.90
2019-02-25T20:32:20.921Z,99.90
2019-02-25T20:34:52.281Z,99.90
2019-02-25T20:37:23.001Z,99.90
2019-02-25T20:39:52.750Z,99.90
2019-02-25T20:42:23.908Z,99.90
2019-02-25T20:44:55.089Z,99.90
2019-02-25T20:47:24.361Z,99.90
2019-02-25T20:49:55.684Z,99.90
2019-02-25T20:52:24.709Z,99.90
2019-02-25T20:54:54.073Z,99.90
2019-02-25T20:57:23.533Z,99.90
2019-02-25T20:59:53.251Z,99.90
2019-02-25T21:02:25.314Z,99.90
2019-02-25T21:04:54.894Z,99.90
2019-02-25T21:07:25.125Z,99.90
2019-02-25T21:09:56.882Z,99.90
2019-02-25T21:12:26.751Z,99.90
2019-02-25T21:14:56.105Z,99.90
2019-02-25T21:17:25.452Z,99.90
2019-02-25T21:19:56.109Z,99.90
2019-02-25T21:22:27.427Z,99.90
2019-02-25T21:24:58.071Z,99.90
2019-02-25T21:27:30.193Z,99.90
2019-02-25T21:29:59.468Z,99.90
2019-02-25T21:32:29.958Z,99.90
2019-02-25T21:34:59.687Z,99.90
2019-02-25T21:37:30.652Z,99.90
2019-02-25T21:40:02.482Z,99.90
2019-02-25T21:42:31.318Z,99.90
2019-02-25T21:45:02.353Z,99.90
2019-02-25T21:47:33.328Z,99.90
2019-02-25T21:50:04.053Z,99.90
2019-02-25T21:52:35.241Z,99.90
2019-02-25T21:55:07.086Z,99.90
2019-02-25T21:57:37.594Z,99.90
2019-02-25T22:00:10.101Z,99.90
2019-02-25T22:02:41.472Z,99.90
2019-02-25T22:05:13.693Z,99.90
2019-02-25T22:07:42.964Z,99.90
2019-02-25T22:10:13.108Z,99.90
2019-02-25T22:12:44.261Z,99.90
2019-02-25T22:15:15.876Z,99.90
2019-02-25T22:17:46.201Z,99.90
2019-02-25T22:20:18.456Z,99.90
2019-02-25T22:22:51.943Z,99.90
2019-02-25T22:25:18.407Z,99.90
2019-02-25T22:27:47.755Z,99.90
2019-02-25T22:30:17.207Z,99.90
2019-02-25T22:32:46.578Z,99.90
2019-02-25T22:35:15.821Z,99.90
2019-02-25T22:37:49.341Z,99.90
2019-02-25T22:40:17.428Z,99.90
2019-02-25T22:42:49.841Z,99.90
2019-02-25T22:45:18.777Z,99.90
2019-02-25T22:47:48.414Z,99.90
2019-02-25T22:50:17.739Z,99.90
2019-02-25T22:52:47.053Z,99.90
2019-02-25T22:55:18.367Z,99.90
2019-02-25T22:57:50.941Z,99.90
2019-02-25T23:00:36.383Z,99.90
2019-02-25T23:03:05.686Z,99.90
2019-02-25T23:05:34.992Z,99.90
2019-02-25T23:08:04.316Z,99.90
2019-02-25T23:10:33.614Z,99.90
2019-02-25T23:13:02.969Z,99.90
2019-02-25T23:15:32.277Z,99.90
2019-02-25T23:18:05.357Z,99.90
2019-02-25T23:20:34.017Z,99.90
2019-02-25T23:23:06.295Z,99.90
2019-02-25T23:25:34.597Z,99.90
2019-02-25T23:28:03.925Z,99.90
2019-02-25T23:30:33.172Z,99.90
2019-02-25T23:33:02.528Z,99.90
2019-02-25T23:35:31.953Z,99.90
2019-02-25T23:38:01.423Z,99.90
2019-02-25T23:40:33.289Z,99.90
2019-02-25T23:43:03.394Z,99.90
2019-02-25T23:45:32.772Z,99.90
2019-02-25T23:48:03.999Z,99.90
2019-02-25T23:50:34.019Z,99.90
2019-02-25T23:53:04.162Z,99.90
2019-02-25T23:55:33.581Z,99.90
2019-02-25T23:58:02.868Z,99.90
